createdAt,value
2022-09-26T00:01:36.299Z,31.60
2022-09-26T00:04:07.935Z,32.80
2022-09-26T00:06:34.406Z,34.70
2022-09-26T00:09:00.930Z,33.90
2022-09-26T00:11:31.109Z,31.60
2022-09-26T00:14:03.243Z,29.40
2022-09-26T00:16:29.743Z,31.40
2022-09-26T00:18:58.292Z,28.60
2022-09-26T00:21:26.631Z,26.70
2022-09-26T00:23:53.803Z,26.50
2022-09-26T00:26:22.476Z,25.20
2022-09-26T00:28:49.555Z,23.20
2022-09-26T00:31:24.586Z,24.40
2022-09-26T00:33:51.136Z,25.40
2022-09-26T00:36:17.786Z,25.60
2022-09-26T00:38:44.608Z,24.50
2022-09-26T00:41:12.195Z,26.30
2022-09-26T00:43:54.347Z,26.00
2022-09-26T00:46:36.885Z,29.00
2022-09-26T00:49:15.343Z,28.90
2022-09-26T00:51:48.282Z,29.90
2022-09-26T00:54:17.307Z,28.30
2022-09-26T00:56:46.786Z,27.80
2022-09-26T00:59:25.236Z,26.90
2022-09-26T01:01:53.054Z,28.50
2022-09-26T01:04:20.410Z,27.40
2022-09-26T01:06:47.096Z,27.20
2022-09-26T01:09:14.584Z,26.80
2022-09-26T01:11:42.683Z,25.50
2022-09-26T01:14:12.208Z,23.90
2022-09-26T01:16:40.337Z,23.70
2022-09-26T01:19:52.002Z,24.00
2022-09-26T01:22:48.493Z,22.90
2022-09-26T01:25:57.926Z,22.90
2022-09-26T01:29:04.134Z,23.60
2022-09-26T01:32:36.926Z,22.30
2022-09-26T01:35:27.531Z,23.60
2022-09-26T01:38:34.534Z,24.30
2022-09-26T01:41:28.552Z,25.60
2022-09-26T01:44:13.138Z,24.60
2022-09-26T01:46:54.151Z,26.00
2022-09-26T01:49:30.749Z,24.50
2022-09-26T01:52:38.465Z,24.50
2022-09-26T01:55:18.011Z,24.90
2022-09-26T01:57:52.150Z,22.30
2022-09-26T02:00:19.309Z,23.20
2022-09-26T02:02:48.145Z,25.00
2022-09-26T02:05:28.353Z,22.80
2022-09-26T02:08:12.395Z,23.00
2022-09-26T02:10:46.987Z,23.90
2022-09-26T02:13:18.877Z,23.20
2022-09-26T02:15:52.072Z,23.30
2022-09-26T02:18:30.163Z,24.20
2022-09-26T02:21:11.553Z,22.90
2022-09-26T02:23:38.209Z,21.40
2022-09-26T02:26:05.198Z,22.80
2022-09-26T02:28:31.853Z,23.20
2022-09-26T02:31:00.669Z,23.70
2022-09-26T02:33:28.449Z,22.20
2022-09-26T02:35:55.129Z,22.00
2022-09-26T02:38:28.028Z,22.30
2022-09-26T02:41:17.970Z,21.20
2022-09-26T02:44:13.734Z,20.50
2022-09-26T02:47:10.162Z,20.50
2022-09-26T02:50:07.773Z,21.70
2022-09-26T02:53:15.056Z,21.40
2022-09-26T02:56:16.783Z,21.00
2022-09-26T02:59:05.942Z,21.70
2022-09-26T03:01:59.657Z,20.70
2022-09-26T03:04:45.067Z,21.30
2022-09-26T03:07:18.493Z,22.60
2022-09-26T03:09:46.188Z,23.20
2022-09-26T03:12:13.169Z,23.30
2022-09-26T03:14:42.147Z,23.30
2022-09-26T03:17:09.561Z,22.60
2022-09-26T03:19:45.926Z,22.20
2022-09-26T03:22:14.513Z,23.10
2022-09-26T03:24:42.307Z,22.30
2022-09-26T03:27:11.535Z,22.00
2022-09-26T03:29:41.332Z,23.00
2022-09-26T03:32:09.042Z,21.10
2022-09-26T03:34:39.173Z,22.90
2022-09-26T03:37:06.138Z,23.20
2022-09-26T03:39:32.604Z,22.90
2022-09-26T03:41:58.979Z,23.00
2022-09-26T03:44:25.370Z,23.30
2022-09-26T03:46:51.852Z,23.30
2022-09-26T03:49:18.281Z,23.10
2022-09-26T03:51:45.435Z,23.20
2022-09-26T03:54:12.974Z,22.60
2022-09-26T03:56:40.545Z,23.00
2022-09-26T03:59:08.490Z,22.50
2022-09-26T04:01:35.121Z,21.70
2022-09-26T04:04:02.240Z,22.70
2022-09-26T04:06:28.739Z,21.00
2022-09-26T04:08:55.915Z,20.90
2022-09-26T04:11:23.917Z,20.70
2022-09-26T04:13:53.186Z,20.70
2022-09-26T04:16:21.955Z,21.40
2022-09-26T04:18:48.783Z,22.10
2022-09-26T04:21:16.148Z,21.40
2022-09-26T04:23:43.621Z,23.30
2022-09-26T04:26:22.547Z,22.60
2022-09-26T04:28:54.025Z,22.30
2022-09-26T04:31:21.285Z,21.30
2022-09-26T04:33:48.506Z,21.70
2022-09-26T04:36:16.653Z,21.20
2022-09-26T04:38:43.711Z,21.40
2022-09-26T04:41:13.564Z,20.90
2022-09-26T04:43:40.792Z,21.20
2022-09-26T04:46:10.467Z,20.50
2022-09-26T04:48:37.533Z,20.60
2022-09-26T04:51:06.664Z,20.10
2022-09-26T04:53:34.653Z,21.50
2022-09-26T04:56:02.075Z,20.70
2022-09-26T04:58:29.036Z,20.70
2022-09-26T05:00:55.886Z,21.20
2022-09-26T05:03:22.513Z,18.90
2022-09-26T05:05:49.530Z,18.00
2022-09-26T05:08:16.714Z,20.80
2022-09-26T05:10:44.565Z,19.80
2022-09-26T05:13:11.081Z,21.20
2022-09-26T05:15:39.399Z,20.40
2022-09-26T05:18:07.889Z,21.20
2022-09-26T05:20:35.337Z,21.50
2022-09-26T05:23:03.511Z,21.10
2022-09-26T05:25:55.298Z,20.40
2022-09-26T05:28:22.481Z,21.40
2022-09-26T05:30:51.241Z,19.60
2022-09-26T05:33:19.660Z,20.60
2022-09-26T05:36:00.023Z,20.80
2022-09-26T05:38:27.500Z,19.90
2022-09-26T05:40:56.881Z,20.60
2022-09-26T05:43:35.461Z,19.50
2022-09-26T05:46:08.358Z,18.10
2022-09-26T05:48:37.066Z,19.20
2022-09-26T05:51:10.351Z,19.60
2022-09-26T05:53:37.166Z,18.60
2022-09-26T05:56:05.592Z,18.80
2022-09-26T05:58:35.471Z,19.90
2022-09-26T06:01:07.999Z,19.20
2022-09-26T06:03:35.145Z,18.70
2022-09-26T06:06:16.059Z,20.00
2022-09-26T06:08:43.651Z,20.10
2022-09-26T06:11:14.016Z,18.50
2022-09-26T06:13:45.020Z,20.50
2022-09-26T06:16:18.579Z,19.60
2022-09-26T06:18:46.469Z,19.50
2022-09-26T06:21:16.530Z,20.70
2022-09-26T06:23:43.772Z,19.30
2022-09-26T06:26:21.038Z,19.30
2022-09-26T06:28:49.893Z,19.80
2022-09-26T06:31:18.404Z,17.60
2022-09-26T06:33:53.224Z,19.60
2022-09-26T06:36:21.310Z,19.80
2022-09-26T06:38:48.365Z,20.90
2022-09-26T06:41:18.820Z,22.30
2022-09-26T06:43:46.887Z,21.80
2022-09-26T06:46:14.594Z,20.10
2022-09-26T06:48:42.032Z,20.20
2022-09-26T06:51:09.395Z,19.50
2022-09-26T06:53:35.875Z,19.90
2022-09-26T06:56:02.493Z,19.80
2022-09-26T06:58:28.981Z,20.40
2022-09-26T07:00:57.500Z,21.60
2022-09-26T07:03:25.992Z,20.80
2022-09-26T07:05:56.391Z,20.90
2022-09-26T07:08:37.664Z,20.60
2022-09-26T07:11:32.638Z,21.40
2022-09-26T07:14:01.340Z,21.30
2022-09-26T07:16:28.637Z,21.30
2022-09-26T07:18:55.923Z,22.00
2022-09-26T07:21:22.414Z,21.40
2022-09-26T07:23:49.008Z,20.90
2022-09-26T07:26:15.442Z,21.10
2022-09-26T07:28:41.903Z,20.40
2022-09-26T07:31:08.319Z,19.80
2022-09-26T07:33:35.017Z,19.10
2022-09-26T07:36:05.309Z,19.70
2022-09-26T07:38:32.276Z,19.50
2022-09-26T07:41:00.129Z,18.60
2022-09-26T07:43:45.451Z,18.80
2022-09-26T07:46:31.769Z,18.60
2022-09-26T07:49:16.930Z,16.40
2022-09-26T07:51:43.557Z,17.40
2022-09-26T07:54:10.471Z,16.10
2022-09-26T07:56:38.522Z,16.30
2022-09-26T07:59:05.426Z,16.90
2022-09-26T08:01:42.221Z,17.60
2022-09-26T08:04:11.340Z,17.60
2022-09-26T08:06:37.911Z,18.50
2022-09-26T08:09:04.369Z,18.50
2022-09-26T08:11:30.956Z,18.90
2022-09-26T08:13:58.563Z,20.00
2022-09-26T08:16:26.855Z,19.10
2022-09-26T08:18:56.281Z,20.80
2022-09-26T08:21:23.448Z,19.50
2022-09-26T08:23:50.088Z,17.70
2022-09-26T08:26:20.842Z,18.10
2022-09-26T08:28:47.589Z,17.60
2022-09-26T08:31:15.823Z,16.20
2022-09-26T08:33:43.515Z,16.60
2022-09-26T08:36:12.718Z,15.70
2022-09-26T08:38:39.334Z,15.10
2022-09-26T08:41:31.933Z,12.40
2022-09-26T08:44:29.534Z,12.80
2022-09-26T08:47:09.484Z,12.70
2022-09-26T08:49:54.252Z,12.20
2022-09-26T08:52:23.165Z,12.40
2022-09-26T08:54:51.108Z,11.80
2022-09-26T08:57:23.654Z,11.70
2022-09-26T09:02:33.873Z,12.40
2022-09-26T09:05:06.828Z,12.00
2022-09-26T09:07:33.619Z,12.70
2022-09-26T09:10:05.890Z,13.10
2022-09-26T09:12:48.557Z,13.50
2022-09-26T09:15:56.324Z,13.80
2022-09-26T09:18:41.904Z,13.50
2022-09-26T09:21:41.761Z,13.90
2022-09-26T09:24:43.120Z,12.40
2022-09-26T09:27:53.131Z,12.70
2022-09-26T09:30:49.520Z,12.90
2022-09-26T09:33:27.055Z,13.30
2022-09-26T09:36:11.741Z,12.10
2022-09-26T09:38:47.929Z,12.60
2022-09-26T09:41:39.745Z,11.90
2022-09-26T09:44:45.635Z,11.80
2022-09-26T09:47:18.176Z,10.60
2022-09-26T09:49:48.129Z,9.90
2022-09-26T09:53:05.774Z,9.70
2022-09-26T09:56:02.227Z,9.30
2022-09-26T09:59:03.254Z,9.20
2022-09-26T10:01:44.003Z,8.40
2022-09-26T10:04:42.004Z,9.20
2022-09-26T10:07:09.101Z,10.10
2022-09-26T10:09:41.381Z,10.50
2022-09-26T10:12:23.692Z,10.80
2022-09-26T10:15:02.633Z,10.80
2022-09-26T10:17:32.481Z,10.10
2022-09-26T10:20:00.962Z,10.40
2022-09-26T10:22:37.673Z,10.90
2022-09-26T10:25:21.541Z,11.40
2022-09-26T10:27:59.836Z,11.60
2022-09-26T10:30:48.241Z,10.40
2022-09-26T10:33:26.918Z,10.70
2022-09-26T10:36:11.609Z,11.70
2022-09-26T10:39:10.627Z,12.70
2022-09-26T10:41:41.083Z,12.90
2022-09-26T10:44:47.872Z,12.00
2022-09-26T10:47:25.043Z,10.90
2022-09-26T10:50:16.736Z,11.20
2022-09-26T10:53:13.173Z,11.40
2022-09-26T10:55:57.738Z,11.20
2022-09-26T10:58:29.149Z,11.40
2022-09-26T11:00:59.821Z,11.20
2022-09-26T11:03:43.964Z,11.00
2022-09-26T11:06:34.139Z,11.20
2022-09-26T11:09:03.100Z,11.30
2022-09-26T11:11:39.782Z,10.70
2022-09-26T11:14:08.928Z,11.10
2022-09-26T11:16:53.354Z,11.50
2022-09-26T11:19:34.691Z,10.50
2022-09-26T11:22:08.396Z,8.30
2022-09-26T11:25:11.428Z,9.80
2022-09-26T11:28:06.485Z,8.70
2022-09-26T11:30:37.581Z,8.00
2022-09-26T11:33:11.401Z,7.90
2022-09-26T11:35:44.228Z,7.00
2022-09-26T11:41:38.015Z,6.20
2022-09-26T11:44:37.787Z,6.70
2022-09-26T11:47:19.155Z,6.50
2022-09-26T11:50:02.836Z,6.80
2022-09-26T11:53:01.923Z,5.90
2022-09-26T11:56:03.580Z,6.70
2022-09-26T11:59:10.576Z,7.90
2022-09-26T12:02:21.961Z,8.80
2022-09-26T12:05:27.655Z,5.10
2022-09-26T12:08:47.138Z,5.40
2022-09-26T12:11:32.200Z,5.80
2022-09-26T12:14:09.609Z,5.80
2022-09-26T12:17:14.479Z,6.50
2022-09-26T12:20:13.454Z,6.60
2022-09-26T12:22:59.822Z,6.80
2022-09-26T12:25:41.390Z,6.60
2022-09-26T12:28:19.760Z,6.20
2022-09-26T12:31:04.843Z,6.60
2022-09-26T12:33:58.562Z,6.20
2022-09-26T12:36:50.364Z,6.60
2022-09-26T12:39:42.360Z,6.00
2022-09-26T12:42:48.597Z,6.60
2022-09-26T12:45:21.521Z,6.60
2022-09-26T12:47:58.453Z,7.50
2022-09-26T12:50:56.529Z,6.00
2022-09-26T12:53:36.206Z,6.80
2022-09-26T12:56:33.985Z,8.00
2022-09-26T12:59:08.501Z,6.80
2022-09-26T13:02:04.864Z,6.10
2022-09-26T13:05:05.484Z,5.50
2022-09-26T13:07:35.299Z,5.60
2022-09-26T13:10:21.979Z,5.60
2022-09-26T13:12:53.966Z,5.00
2022-09-26T13:15:30.763Z,5.20
2022-09-26T13:18:26.335Z,4.40
2022-09-26T13:21:02.610Z,4.10
2022-09-26T13:23:53.013Z,3.50
2022-09-26T13:26:31.422Z,2.60
2022-09-26T13:29:17.952Z,2.50
2022-09-26T13:32:15.759Z,2.50
2022-09-26T13:35:06.100Z,2.00
2022-09-26T13:37:56.624Z,2.20
2022-09-26T13:41:30.908Z,2.10
2022-09-26T13:44:36.959Z,1.90
2022-09-26T13:47:35.722Z,1.40
2022-09-26T13:50:25.797Z,1.70
2022-09-26T13:53:06.225Z,1.50
2022-09-26T13:55:33.804Z,1.50
2022-09-26T13:58:20.396Z,1.60
2022-09-26T14:00:53.499Z,2.10
2022-09-26T14:03:21.091Z,2.20
2022-09-26T14:05:54.593Z,1.70
2022-09-26T14:08:42.684Z,1.60
2022-09-26T14:11:29.652Z,1.40
2022-09-26T14:14:17.840Z,1.60
2022-09-26T14:16:46.154Z,1.40
2022-09-26T14:19:35.724Z,1.90
2022-09-26T14:22:25.464Z,2.20
2022-09-26T14:24:53.690Z,2.00
2022-09-26T14:27:37.449Z,1.30
2022-09-26T14:30:32.972Z,1.60
2022-09-26T14:33:09.343Z,1.30
2022-09-26T14:35:38.091Z,1.50
2022-09-26T14:38:16.292Z,1.40
2022-09-26T14:40:59.253Z,1.00
2022-09-26T14:43:30.082Z,0.90
2022-09-26T14:46:17.497Z,1.20
2022-09-26T14:48:47.629Z,1.30
2022-09-26T14:51:46.157Z,1.50
2022-09-26T14:54:44.865Z,1.70
2022-09-26T14:57:47.793Z,1.40
2022-09-26T15:01:08.071Z,1.40
2022-09-26T15:03:41.485Z,1.50
2022-09-26T15:06:17.979Z,1.50
2022-09-26T15:08:44.900Z,1.60
2022-09-26T15:11:29.721Z,1.80
2022-09-26T15:14:31.280Z,2.40
2022-09-26T15:17:00.769Z,1.70
2022-09-26T15:19:37.313Z,2.40
2022-09-26T15:22:16.839Z,2.60
2022-09-26T15:24:45.234Z,2.10
2022-09-26T15:27:20.477Z,2.00
2022-09-26T15:29:54.758Z,1.80
2022-09-26T15:32:29.369Z,2.00
2022-09-26T15:35:04.693Z,2.10
2022-09-26T15:37:35.783Z,2.00
2022-09-26T15:40:17.856Z,2.60
2022-09-26T15:43:01.356Z,2.30
2022-09-26T15:45:48.580Z,2.60
2022-09-26T15:48:20.418Z,2.60
2022-09-26T15:51:05.280Z,2.10
2022-09-26T15:53:52.879Z,2.20
2022-09-26T15:56:38.244Z,2.10
2022-09-26T15:59:40.725Z,2.40
2022-09-26T16:02:30.051Z,2.40
2022-09-26T16:04:57.959Z,2.10
2022-09-26T16:07:39.646Z,2.10
2022-09-26T16:10:27.978Z,2.50
2022-09-26T16:13:00.097Z,2.10
2022-09-26T16:15:29.502Z,2.20
2022-09-26T16:18:01.107Z,2.20
2022-09-26T16:20:30.596Z,2.30
2022-09-26T16:23:05.301Z,2.40
2022-09-26T16:25:48.946Z,2.50
2022-09-26T16:28:17.148Z,2.30
2022-09-26T16:30:54.227Z,2.10
2022-09-26T16:33:32.700Z,2.70
2022-09-26T16:37:02.556Z,3.50
2022-09-26T16:39:55.669Z,4.70
2022-09-26T16:42:25.510Z,9.30
2022-09-26T16:44:59.785Z,9.40
2022-09-26T16:47:44.083Z,10.80
2022-09-26T16:50:39.826Z,18.40
2022-09-26T16:53:11.967Z,17.40
2022-09-26T16:55:38.722Z,12.60
2022-09-26T16:58:11.563Z,10.70
2022-09-26T17:00:58.567Z,14.70
2022-09-26T17:03:53.348Z,22.10
2022-09-26T17:06:20.720Z,25.10
2022-09-26T17:08:47.988Z,22.00
2022-09-26T17:11:16.322Z,18.10
2022-09-26T17:13:51.097Z,18.30
2022-09-26T17:16:21.464Z,16.20
2022-09-26T17:18:52.773Z,16.30
2022-09-26T17:21:24.897Z,18.80
2022-09-26T17:23:54.253Z,17.50
2022-09-26T17:26:35.169Z,25.60
2022-09-26T17:29:43.926Z,23.50
2022-09-26T17:32:48.834Z,23.70
2022-09-26T17:35:31.856Z,22.20
2022-09-26T17:38:05.087Z,16.60
2022-09-26T17:41:14.633Z,19.40
2022-09-26T17:43:42.712Z,22.60
2022-09-26T17:46:37.863Z,29.60
2022-09-26T17:49:26.516Z,40.70
2022-09-26T17:52:18.701Z,56.40
2022-09-26T17:54:48.229Z,69.50
2022-09-26T17:57:41.573Z,53.80
2022-09-26T18:00:17.795Z,30.40
2022-09-26T18:02:49.834Z,38.10
2022-09-26T18:05:32.973Z,35.40
2022-09-26T18:08:13.715Z,34.70
2022-09-26T18:11:14.250Z,34.60
2022-09-26T18:24:01.074Z,75.20
2022-09-26T18:27:11.472Z,95.90
2022-09-26T18:29:45.587Z,108.50
2022-09-26T18:37:22.087Z,63.10
2022-09-26T18:40:39.309Z,57.00
2022-09-26T18:42:48.837Z,50.40
2022-09-26T18:45:42.823Z,57.10
2022-09-26T18:49:14.453Z,68.00
2022-09-26T20:18:55.759Z,50.00
2022-09-26T20:21:49.413Z,48.90
2022-09-26T20:33:55.943Z,43.30
2022-09-26T20:37:34.235Z,31.20
2022-09-26T20:40:49.477Z,34.80
2022-09-26T20:47:31.561Z,31.70
2022-09-26T20:50:17.577Z,38.10
2022-09-26T21:03:27.161Z,35.40
2022-09-26T21:06:04.605Z,36.50
2022-09-26T21:12:47.508Z,42.70
2022-09-26T22:21:50.843Z,36.40
2022-09-26T22:24:20.398Z,34.60
2022-09-26T22:26:47.755Z,39.70
2022-09-26T22:29:15.071Z,39.80
2022-09-26T22:31:43.194Z,42.60
2022-09-26T22:34:12.576Z,37.90
2022-09-26T22:36:39.497Z,41.00
2022-09-26T22:39:07.905Z,41.30
2022-09-26T22:41:34.925Z,38.90
2022-09-26T22:44:03.408Z,38.90
2022-09-26T22:46:34.169Z,36.20
2022-09-26T22:49:05.641Z,36.30
2022-09-26T22:51:32.776Z,34.90
2022-09-26T22:53:59.786Z,34.30
2022-09-26T22:56:27.378Z,34.00
2022-09-26T22:58:54.592Z,33.90
2022-09-26T23:01:27.442Z,35.00
2022-09-26T23:03:57.978Z,35.30
2022-09-26T23:08:55.618Z,39.20
2022-09-26T23:11:25.507Z,38.10
2022-09-26T23:13:53.131Z,37.50
2022-09-26T23:16:23.091Z,36.80
2022-09-26T23:18:54.419Z,36.90
2022-09-26T23:21:27.402Z,35.80
2022-09-26T23:26:29.036Z,31.60
2022-09-26T23:29:08.797Z,33.60
2022-09-26T23:31:35.763Z,34.60
2022-09-26T23:34:03.063Z,34.90
2022-09-26T23:36:30.025Z,33.10
2022-09-26T23:38:57.518Z,33.50
2022-09-26T23:41:24.362Z,33.10
2022-09-26T23:43:51.710Z,31.40
2022-09-26T23:46:18.537Z,32.90
2022-09-26T23:48:45.574Z,33.90
2022-09-26T23:51:12.152Z,32.90
2022-09-26T23:53:38.767Z,32.30
2022-09-26T23:56:11.961Z,32.60
2022-09-26T23:58:39.256Z,33.10
